createdAt,value
2023-09-14T00:00:56.163Z,13.90
2023-09-14T00:03:23.495Z,13.90
2023-09-14T00:05:51.272Z,13.90
2023-09-14T00:08:18.948Z,13.90
2023-09-14T00:10:45.989Z,13.90
2023-09-14T00:13:13.075Z,13.90
2023-09-14T00:15:43.520Z,13.90
2023-09-14T00:18:10.790Z,13.90
2023-09-14T00:20:37.829Z,13.90
2023-09-14T00:23:05.011Z,13.90
2023-09-14T00:25:32.162Z,14.00
2023-09-14T00:27:59.192Z,14.00
2023-09-14T00:30:26.335Z,14.00
2023-09-14T00:32:54.149Z,14.00
2023-09-14T00:35:21.804Z,14.00
2023-09-14T00:37:49.726Z,14.10
2023-09-14T00:40:18.983Z,14.10
2023-09-14T00:42:52.433Z,14.10
2023-09-14T00:45:22.323Z,14.10
2023-09-14T00:47:55.213Z,14.10
2023-09-14T00:50:22.531Z,14.10
2023-09-14T00:53:00.399Z,14.20
2023-09-14T00:55:29.427Z,14.20
2023-09-14T00:57:59.962Z,14.20
2023-09-14T01:00:27.976Z,14.20
2023-09-14T01:02:56.803Z,14.30
2023-09-14T01:05:28.326Z,14.30
2023-09-14T01:07:55.655Z,14.30
2023-09-14T01:10:22.895Z,14.30
2023-09-14T01:12:50.664Z,14.40
2023-09-14T01:15:54.223Z,14.40
2023-09-14T01:18:38.075Z,14.40
2023-09-14T01:21:11.017Z,14.40
2023-09-14T01:24:03.036Z,14.40
2023-09-14T01:26:31.173Z,14.40
2023-09-14T01:29:00.221Z,14.40
2023-09-14T01:31:27.387Z,14.40
2023-09-14T01:33:54.560Z,14.40
2023-09-14T01:36:37.988Z,14.40
2023-09-14T01:39:06.373Z,14.50
2023-09-14T01:41:35.748Z,14.40
2023-09-14T01:44:05.053Z,14.40
2023-09-14T01:46:33.808Z,14.40
2023-09-14T01:49:01.065Z,14.40
2023-09-14T01:51:29.340Z,14.40
2023-09-14T01:53:56.290Z,14.40
2023-09-14T01:56:23.255Z,14.40
2023-09-14T01:58:50.295Z,14.40
2023-09-14T02:01:17.265Z,14.40
2023-09-14T02:03:44.458Z,14.30
2023-09-14T02:06:11.467Z,14.30
2023-09-14T02:08:38.761Z,14.20
2023-09-14T02:11:05.786Z,14.20
2023-09-14T02:13:32.917Z,14.10
2023-09-14T02:15:59.854Z,14.00
2023-09-14T02:18:27.488Z,14.00
2023-09-14T02:20:54.506Z,13.90
2023-09-14T02:23:21.478Z,13.90
2023-09-14T02:25:50.774Z,13.80
2023-09-14T02:28:20.818Z,13.80
2023-09-14T02:30:48.560Z,13.80
2023-09-14T02:33:15.588Z,13.70
2023-09-14T02:35:43.318Z,13.60
2023-09-14T02:38:10.397Z,13.60
2023-09-14T02:40:37.859Z,13.50
2023-09-14T02:43:05.058Z,13.50
2023-09-14T02:45:32.236Z,13.40
2023-09-14T02:47:59.306Z,13.40
2023-09-14T02:50:26.332Z,13.40
2023-09-14T02:52:53.821Z,13.30
2023-09-14T02:55:20.950Z,13.30
2023-09-14T02:57:47.977Z,13.20
2023-09-14T03:00:18.561Z,13.20
2023-09-14T03:02:46.631Z,13.10
2023-09-14T03:05:14.353Z,13.10
2023-09-14T03:07:41.422Z,13.10
2023-09-14T03:10:09.228Z,13.00
2023-09-14T03:12:36.273Z,13.00
2023-09-14T03:15:03.683Z,13.00
2023-09-14T03:17:31.210Z,12.90
2023-09-14T03:19:58.338Z,12.90
2023-09-14T03:22:26.053Z,12.90
2023-09-14T03:24:53.314Z,12.80
2023-09-14T03:27:20.351Z,12.90
2023-09-14T03:29:48.604Z,12.80
2023-09-14T03:32:15.586Z,12.80
2023-09-14T03:34:42.620Z,12.80
2023-09-14T03:37:09.734Z,12.80
2023-09-14T03:39:36.798Z,12.70
2023-09-14T03:42:04.017Z,12.70
2023-09-14T03:44:32.402Z,12.70
2023-09-14T03:46:59.490Z,12.60
2023-09-14T03:49:27.896Z,12.60
2023-09-14T03:51:54.933Z,12.60
2023-09-14T03:54:22.026Z,12.50
2023-09-14T03:56:49.089Z,12.50
2023-09-14T03:59:16.454Z,12.50
2023-09-14T04:01:43.553Z,12.40
2023-09-14T04:04:10.569Z,12.40
2023-09-14T04:06:37.636Z,12.40
2023-09-14T04:09:05.752Z,12.30
2023-09-14T04:11:32.744Z,12.30
2023-09-14T04:14:00.149Z,12.20
2023-09-14T04:16:29.698Z,12.20
2023-09-14T04:19:02.147Z,12.20
2023-09-14T04:21:30.016Z,12.10
2023-09-14T04:23:56.994Z,12.10
2023-09-14T04:26:24.129Z,12.10
2023-09-14T04:28:52.121Z,12.10
2023-09-14T04:31:19.177Z,12.00
2023-09-14T04:33:46.263Z,12.00
2023-09-14T04:36:13.295Z,12.00
2023-09-14T04:38:40.285Z,12.00
2023-09-14T04:41:07.267Z,11.90
2023-09-14T04:43:34.839Z,11.90
2023-09-14T04:46:02.790Z,11.90
2023-09-14T04:48:30.324Z,11.90
2023-09-14T04:50:58.196Z,11.90
2023-09-14T04:53:26.277Z,11.80
2023-09-14T04:55:54.695Z,11.80
2023-09-14T04:58:24.052Z,11.80
2023-09-14T05:00:53.256Z,11.80
2023-09-14T05:03:20.764Z,11.80
2023-09-14T05:05:52.719Z,11.80
2023-09-14T05:08:19.817Z,11.80
2023-09-14T05:10:50.048Z,11.80
2023-09-14T05:13:19.488Z,11.80
2023-09-14T05:15:46.811Z,11.80
2023-09-14T05:18:13.996Z,11.80
2023-09-14T05:20:45.272Z,11.80
2023-09-14T05:23:12.340Z,11.70
2023-09-14T05:25:40.052Z,11.70
2023-09-14T05:28:08.062Z,11.80
2023-09-14T05:30:35.980Z,11.80
2023-09-14T05:33:03.089Z,11.80
2023-09-14T05:35:30.294Z,11.80
2023-09-14T05:37:57.326Z,11.80
2023-09-14T05:40:24.473Z,11.80
2023-09-14T05:42:51.648Z,11.90
2023-09-14T05:45:18.775Z,11.90
2023-09-14T05:47:45.821Z,11.90
2023-09-14T05:50:13.392Z,12.00
2023-09-14T05:52:40.534Z,12.00
2023-09-14T05:55:07.816Z,12.10
2023-09-14T05:57:34.970Z,12.10
2023-09-14T06:00:02.201Z,12.10
2023-09-14T06:02:29.345Z,12.10
2023-09-14T06:05:05.470Z,12.20
2023-09-14T06:07:44.222Z,12.30
2023-09-14T06:10:11.606Z,12.30
2023-09-14T06:12:38.658Z,12.40
2023-09-14T06:15:06.354Z,12.50
2023-09-14T06:17:33.312Z,12.60
2023-09-14T06:20:00.636Z,12.80
2023-09-14T06:22:27.722Z,13.00
2023-09-14T06:24:54.763Z,13.10
2023-09-14T06:27:21.959Z,13.20
2023-09-14T06:29:48.963Z,13.20
2023-09-14T06:32:15.946Z,13.30
2023-09-14T06:34:43.062Z,13.30
2023-09-14T06:37:10.068Z,13.50
2023-09-14T06:39:37.072Z,13.60
2023-09-14T06:42:04.302Z,13.60
2023-09-14T06:44:31.542Z,13.70
2023-09-14T06:46:59.040Z,14.00
2023-09-14T06:49:26.092Z,14.20
2023-09-14T06:51:53.239Z,14.30
2023-09-14T06:54:20.283Z,14.50
2023-09-14T06:56:47.321Z,14.70
2023-09-14T06:59:15.424Z,14.90
2023-09-14T07:01:42.660Z,15.20
2023-09-14T07:04:10.151Z,15.60
2023-09-14T07:06:37.239Z,15.80
2023-09-14T07:09:07.667Z,16.10
2023-09-14T07:11:35.668Z,16.40
2023-09-14T07:14:04.147Z,16.80
2023-09-14T07:16:31.226Z,17.10
2023-09-14T07:19:00.205Z,17.40
2023-09-14T07:21:28.444Z,17.70
2023-09-14T07:23:55.896Z,18.00
2023-09-14T07:26:22.961Z,18.20
2023-09-14T07:28:50.093Z,18.50
2023-09-14T07:31:19.867Z,18.70
2023-09-14T07:33:47.890Z,18.80
2023-09-14T07:36:15.146Z,18.90
2023-09-14T07:38:42.420Z,18.80
2023-09-14T07:41:09.870Z,18.90
2023-09-14T07:43:37.417Z,19.10
2023-09-14T07:46:05.098Z,19.30
2023-09-14T07:48:32.456Z,19.50
2023-09-14T07:50:59.773Z,19.80
2023-09-14T07:53:26.818Z,20.00
2023-09-14T07:55:54.401Z,20.20
2023-09-14T07:58:21.734Z,20.20
2023-09-14T08:00:49.845Z,20.10
2023-09-14T08:03:17.502Z,20.10
2023-09-14T08:05:47.955Z,20.10
2023-09-14T08:08:15.088Z,20.20
2023-09-14T08:10:42.318Z,20.30
2023-09-14T08:13:09.622Z,20.70
2023-09-14T08:15:36.989Z,20.70
2023-09-14T08:18:04.210Z,20.50
2023-09-14T08:20:39.108Z,20.40
2023-09-14T08:23:06.063Z,20.60
2023-09-14T08:25:33.419Z,20.80
2023-09-14T08:28:00.527Z,21.00
2023-09-14T08:30:27.730Z,21.00
2023-09-14T08:32:54.800Z,21.00
2023-09-14T08:35:29.272Z,20.70
2023-09-14T08:37:56.782Z,20.60
2023-09-14T08:40:24.914Z,20.60
2023-09-14T08:42:55.817Z,20.50
2023-09-14T08:45:27.305Z,20.30
2023-09-14T08:47:55.925Z,20.20
2023-09-14T08:50:26.343Z,20.20
2023-09-14T08:52:54.102Z,20.50
2023-09-14T08:55:22.859Z,20.70
2023-09-14T08:57:51.857Z,21.10
2023-09-14T09:00:20.774Z,21.40
2023-09-14T09:02:50.237Z,21.80
2023-09-14T09:05:18.711Z,22.30
2023-09-14T09:07:47.583Z,22.70
2023-09-14T09:10:22.244Z,23.00
2023-09-14T09:12:52.075Z,23.10
2023-09-14T09:15:19.433Z,23.50
2023-09-14T09:17:46.575Z,23.80
2023-09-14T09:20:23.594Z,23.90
2023-09-14T09:22:56.784Z,24.30
2023-09-14T09:25:24.490Z,24.60
2023-09-14T09:28:09.845Z,24.50
2023-09-14T09:30:37.490Z,24.50
2023-09-14T09:33:05.210Z,24.50
2023-09-14T09:35:32.333Z,24.90
2023-09-14T09:37:59.822Z,25.20
2023-09-14T09:40:27.870Z,25.20
2023-09-14T09:42:55.950Z,25.50
2023-09-14T09:45:24.606Z,25.20
2023-09-14T09:47:52.044Z,25.30
2023-09-14T09:50:23.017Z,25.30
2023-09-14T09:52:50.606Z,25.60
2023-09-14T09:55:26.423Z,25.60
2023-09-14T09:57:58.931Z,25.30
2023-09-14T10:00:36.175Z,25.10
2023-09-14T10:03:04.513Z,25.10
2023-09-14T10:05:33.498Z,25.20
2023-09-14T10:08:02.457Z,25.30
2023-09-14T10:10:31.234Z,25.50
2023-09-14T10:13:02.156Z,25.60
2023-09-14T10:15:29.392Z,26.00
2023-09-14T10:17:57.878Z,26.30
2023-09-14T10:20:26.659Z,26.30
2023-09-14T10:22:53.956Z,25.90
2023-09-14T10:25:22.332Z,26.20
2023-09-14T10:27:49.740Z,26.50
2023-09-14T10:30:21.156Z,26.40
2023-09-14T10:32:49.654Z,26.80
2023-09-14T10:35:18.569Z,27.00
2023-09-14T10:37:47.462Z,27.10
2023-09-14T10:40:15.377Z,27.40
2023-09-14T10:42:48.398Z,27.60
2023-09-14T10:45:15.788Z,27.50
2023-09-14T10:47:49.733Z,27.40
2023-09-14T10:50:20.535Z,27.70
2023-09-14T10:52:48.401Z,28.00
2023-09-14T10:55:16.127Z,28.00
2023-09-14T10:57:43.564Z,28.20
2023-09-14T11:00:55.946Z,28.10
2023-09-14T11:03:25.978Z,28.40
2023-09-14T11:05:55.777Z,28.70
2023-09-14T11:08:29.884Z,28.90
2023-09-14T11:11:01.944Z,29.40
2023-09-14T11:13:35.575Z,29.50
2023-09-14T11:16:11.199Z,28.60
2023-09-14T11:18:54.751Z,27.40
2023-09-14T11:21:37.836Z,26.10
2023-09-14T11:24:09.105Z,25.20
2023-09-14T11:26:41.511Z,24.90
2023-09-14T11:29:09.843Z,25.70
2023-09-14T11:31:58.729Z,26.60
2023-09-14T11:34:28.991Z,27.30
2023-09-14T11:37:03.136Z,27.80
2023-09-14T11:39:37.702Z,27.50
2023-09-14T11:42:08.719Z,27.60
2023-09-14T11:44:53.795Z,27.90
2023-09-14T11:47:28.377Z,28.50
2023-09-14T11:50:03.178Z,28.50
2023-09-14T11:52:32.114Z,28.60
2023-09-14T11:54:59.336Z,28.80
2023-09-14T11:57:30.076Z,29.00
2023-09-14T11:59:57.345Z,29.20
2023-09-14T12:02:24.674Z,29.30
2023-09-14T12:04:53.674Z,29.30
2023-09-14T12:07:23.074Z,29.20
2023-09-14T12:09:50.811Z,29.00
2023-09-14T12:12:29.303Z,29.10
2023-09-14T12:15:00.273Z,29.50
2023-09-14T12:17:29.769Z,29.60
2023-09-14T12:20:00.432Z,29.30
2023-09-14T12:22:31.999Z,29.30
2023-09-14T12:25:00.491Z,29.70
2023-09-14T12:27:29.984Z,29.90
2023-09-14T12:29:58.535Z,29.30
2023-09-14T12:32:27.008Z,28.80
2023-09-14T12:34:54.208Z,28.30
2023-09-14T12:37:21.592Z,28.40
2023-09-14T12:39:53.425Z,28.00
2023-09-14T12:42:25.384Z,27.60
2023-09-14T12:44:55.186Z,28.00
2023-09-14T12:47:22.750Z,28.70
2023-09-14T12:49:49.854Z,29.20
2023-09-14T12:52:17.685Z,29.90
2023-09-14T12:54:45.005Z,30.30
2023-09-14T12:57:18.509Z,30.40
2023-09-14T13:00:16.188Z,30.40
2023-09-14T13:02:48.826Z,29.40
2023-09-14T13:05:17.383Z,28.70
2023-09-14T13:07:52.605Z,28.00
2023-09-14T13:10:42.393Z,28.20
2023-09-14T13:13:11.103Z,29.50
2023-09-14T13:15:43.643Z,30.10
2023-09-14T13:18:15.872Z,29.60
2023-09-14T13:20:48.653Z,29.70
2023-09-14T13:23:16.113Z,30.30
2023-09-14T13:25:43.392Z,30.80
2023-09-14T13:28:12.424Z,31.10
2023-09-14T13:30:40.390Z,31.30
2023-09-14T13:33:10.228Z,31.20
2023-09-14T13:35:37.797Z,30.50
2023-09-14T13:38:05.941Z,29.50
2023-09-14T13:40:32.938Z,28.90
2023-09-14T13:43:04.235Z,28.60
2023-09-14T13:45:31.905Z,27.90
2023-09-14T13:47:59.150Z,27.10
2023-09-14T13:50:27.043Z,26.50
2023-09-14T13:52:54.098Z,26.40
2023-09-14T13:55:21.189Z,26.30
2023-09-14T13:57:48.752Z,27.30
2023-09-14T14:00:18.265Z,28.30
2023-09-14T14:02:50.447Z,29.10
2023-09-14T14:05:19.128Z,29.60
2023-09-14T14:07:46.231Z,30.10
2023-09-14T14:10:13.891Z,30.20
2023-09-14T14:12:40.964Z,30.10
2023-09-14T14:15:12.508Z,29.90
2023-09-14T14:17:40.328Z,29.80
2023-09-14T14:20:09.804Z,30.20
2023-09-14T14:22:37.257Z,30.40
2023-09-14T14:25:05.154Z,30.40
2023-09-14T14:27:33.975Z,30.70
2023-09-14T14:30:01.053Z,30.60
2023-09-14T14:32:29.540Z,30.60
2023-09-14T14:34:56.836Z,29.90
2023-09-14T14:37:24.296Z,28.60
2023-09-14T14:39:52.831Z,27.20
2023-09-14T14:42:20.601Z,26.40
2023-09-14T14:44:48.923Z,25.50
2023-09-14T14:47:19.916Z,24.90
2023-09-14T14:49:47.041Z,24.20
2023-09-14T14:52:14.370Z,23.60
2023-09-14T14:54:41.782Z,23.30
2023-09-14T14:57:09.080Z,23.00
2023-09-14T14:59:36.753Z,22.90
2023-09-14T15:02:04.077Z,23.10
2023-09-14T15:04:32.378Z,23.00
2023-09-14T15:06:59.699Z,23.00
2023-09-14T15:09:26.979Z,23.00
2023-09-14T15:11:55.680Z,23.00
2023-09-14T15:14:23.198Z,23.00
2023-09-14T15:16:50.473Z,22.80
2023-09-14T15:19:19.079Z,22.60
2023-09-14T15:21:48.362Z,22.50
2023-09-14T15:24:15.627Z,22.60
2023-09-14T15:26:42.611Z,22.50
2023-09-14T15:29:09.772Z,22.40
2023-09-14T15:31:36.820Z,22.70
2023-09-14T15:34:05.091Z,23.60
2023-09-14T15:36:32.125Z,23.70
2023-09-14T15:38:59.330Z,23.90
2023-09-14T15:41:26.276Z,24.50
2023-09-14T15:43:54.754Z,25.40
2023-09-14T15:46:22.257Z,26.10
2023-09-14T15:48:50.259Z,26.40
2023-09-14T15:51:18.998Z,26.50
2023-09-14T15:53:48.935Z,26.40
2023-09-14T15:56:16.154Z,26.30
2023-09-14T15:58:43.134Z,25.90
2023-09-14T16:01:10.422Z,24.90
2023-09-14T16:03:37.630Z,23.90
2023-09-14T16:06:06.934Z,23.20
2023-09-14T16:08:34.026Z,22.60
2023-09-14T16:11:01.208Z,22.30
2023-09-14T16:13:28.188Z,22.50
2023-09-14T16:15:55.205Z,22.80
2023-09-14T16:18:22.253Z,23.00
2023-09-14T16:20:49.309Z,23.60
2023-09-14T16:23:16.646Z,23.80
2023-09-14T16:25:43.821Z,24.00
2023-09-14T16:28:13.049Z,24.00
2023-09-14T16:30:41.590Z,23.50
2023-09-14T16:33:09.263Z,22.90
2023-09-14T16:35:39.516Z,22.40
2023-09-14T16:38:06.835Z,22.10
2023-09-14T16:40:34.266Z,21.70
2023-09-14T16:43:01.669Z,21.40
2023-09-14T16:45:28.810Z,21.20
2023-09-14T16:47:59.313Z,21.00
2023-09-14T17:37:04.916Z,19.60
2023-09-14T17:39:35.007Z,19.50
2023-09-14T17:42:04.271Z,19.40
2023-09-14T17:44:31.816Z,19.30
2023-09-14T17:46:59.121Z,19.20
2023-09-14T17:49:27.981Z,19.10
2023-09-14T17:51:55.651Z,19.00
2023-09-14T17:54:22.778Z,18.90
2023-09-14T17:56:51.002Z,18.70
2023-09-14T17:59:18.039Z,18.70
2023-09-14T18:01:45.852Z,18.60
2023-09-14T18:04:12.977Z,18.50
2023-09-14T18:06:40.209Z,18.50
2023-09-14T18:09:07.275Z,18.40
2023-09-14T18:11:34.375Z,18.50
2023-09-14T18:14:01.541Z,18.40
2023-09-14T18:16:28.707Z,18.40
2023-09-14T18:18:55.809Z,18.30
2023-09-14T18:21:23.045Z,18.20
2023-09-14T18:23:50.285Z,18.10
2023-09-14T18:26:17.416Z,18.10
2023-09-14T18:28:44.409Z,18.00
2023-09-14T18:31:11.701Z,17.90
2023-09-14T18:33:38.965Z,17.80
2023-09-14T18:36:06.323Z,17.70
2023-09-14T18:38:33.555Z,17.70
2023-09-14T18:41:04.032Z,17.70
2023-09-14T18:43:32.950Z,17.60
2023-09-14T18:46:00.385Z,17.60
2023-09-14T18:48:28.520Z,17.50
2023-09-14T18:51:03.881Z,17.50
2023-09-14T18:53:31.907Z,17.50
2023-09-14T18:55:59.970Z,17.40
2023-09-14T19:00:57.711Z,17.30
2023-09-14T19:03:25.033Z,17.20
2023-09-14T19:05:55.325Z,17.20
2023-09-14T19:08:23.004Z,17.20
2023-09-14T19:10:54.497Z,17.10
2023-09-14T19:13:22.997Z,17.10
2023-09-14T19:15:52.737Z,17.00
2023-09-14T19:18:20.093Z,17.00
2023-09-14T19:20:50.571Z,17.00
2023-09-14T19:23:17.750Z,16.90
2023-09-14T19:25:44.769Z,16.90
2023-09-14T19:28:12.332Z,16.90
2023-09-14T19:30:43.880Z,16.80
2023-09-14T19:33:13.235Z,16.80
2023-09-14T19:35:41.239Z,16.90
2023-09-14T19:38:08.513Z,16.80
2023-09-14T19:40:35.729Z,16.80
2023-09-14T19:43:03.804Z,16.80
2023-09-14T19:45:31.031Z,16.70
2023-09-14T19:47:58.156Z,16.70
2023-09-14T19:50:27.125Z,16.60
2023-09-14T19:52:55.437Z,16.60
2023-09-14T19:55:22.741Z,16.50
2023-09-14T19:57:49.816Z,16.50
2023-09-14T20:00:18.962Z,16.50
2023-09-14T20:02:48.678Z,16.40
2023-09-14T20:05:16.318Z,16.40
2023-09-14T20:07:46.805Z,16.40
2023-09-14T20:10:13.886Z,16.30
2023-09-14T20:12:41.114Z,16.30
2023-09-14T20:15:10.088Z,16.30
2023-09-14T20:17:37.371Z,16.20
2023-09-14T20:20:06.611Z,16.20
2023-09-14T20:22:33.651Z,16.20
2023-09-14T20:25:00.723Z,16.20
2023-09-14T20:27:28.724Z,16.10
2023-09-14T20:29:56.038Z,16.10
2023-09-14T20:32:23.539Z,16.10
2023-09-14T20:34:50.595Z,16.00
2023-09-14T20:37:19.993Z,16.00
2023-09-14T20:39:48.285Z,16.00
2023-09-14T20:42:15.448Z,16.00
2023-09-14T20:44:43.367Z,16.00
2023-09-14T20:47:11.484Z,16.00
2023-09-14T20:49:38.701Z,16.00
2023-09-14T20:52:06.711Z,15.90
2023-09-14T20:54:34.816Z,15.90
2023-09-14T20:57:02.933Z,15.80
2023-09-14T20:59:31.199Z,15.80
2023-09-14T21:01:58.337Z,15.70
2023-09-14T21:04:25.734Z,15.70
2023-09-14T21:06:53.450Z,15.70
2023-09-14T21:09:21.540Z,15.60
2023-09-14T21:11:48.694Z,15.60
2023-09-14T21:14:19.002Z,15.60
2023-09-14T21:16:46.094Z,15.60
2023-09-14T21:19:13.574Z,15.50
2023-09-14T21:21:40.687Z,15.50
2023-09-14T21:24:08.170Z,15.50
2023-09-14T21:26:35.199Z,15.50
2023-09-14T21:29:02.303Z,15.50
2023-09-14T21:31:29.326Z,15.50
2023-09-14T21:33:56.444Z,15.50
2023-09-14T21:36:23.605Z,15.40
2023-09-14T21:38:50.866Z,15.40
2023-09-14T21:41:17.919Z,15.40
2023-09-14T21:43:44.981Z,15.40
2023-09-14T21:46:12.459Z,15.30
2023-09-14T21:48:39.553Z,15.30
2023-09-14T21:51:06.786Z,15.20
2023-09-14T21:53:34.051Z,15.20
2023-09-14T21:56:01.139Z,15.20
2023-09-14T21:58:28.189Z,15.20
2023-09-14T22:00:55.358Z,15.10
2023-09-14T22:03:37.148Z,15.10
2023-09-14T22:06:23.492Z,15.10
2023-09-14T22:08:51.200Z,15.00
2023-09-14T22:11:18.225Z,15.00
2023-09-14T22:13:45.835Z,15.00
2023-09-14T22:16:13.348Z,14.90
2023-09-14T22:18:42.042Z,14.90
2023-09-14T22:21:18.017Z,14.90
2023-09-14T22:23:45.035Z,14.90
